createdAt,value
2022-09-13T00:02:14.182Z,8.33
2022-09-13T00:04:42.096Z,7.47
2022-09-13T00:07:09.710Z,7.90
2022-09-13T00:09:38.848Z,7.70
2022-09-13T00:12:07.896Z,8.03
2022-09-13T00:14:35.584Z,8.43
2022-09-13T00:17:03.226Z,8.10
2022-09-13T00:19:31.038Z,7.43
2022-09-13T00:21:58.779Z,7.63
2022-09-13T00:24:26.416Z,7.97
2022-09-13T00:26:55.276Z,7.63
2022-09-13T00:29:22.841Z,7.90
2022-09-13T00:31:50.487Z,8.40
2022-09-13T00:34:18.096Z,7.43
2022-09-13T00:36:45.675Z,7.30
2022-09-13T00:39:13.788Z,7.97
2022-09-13T00:41:41.561Z,7.80
2022-09-13T00:44:42.441Z,7.20
2022-09-13T00:47:12.806Z,8.37
2022-09-13T00:49:42.781Z,8.43
2022-09-13T00:52:16.244Z,8.87
2022-09-13T00:54:47.154Z,9.13
2022-09-13T00:57:16.921Z,8.80
2022-09-13T00:59:51.181Z,9.93
2022-09-13T01:02:20.736Z,9.10
2022-09-13T01:04:48.683Z,8.13
2022-09-13T01:07:18.745Z,9.37
2022-09-13T01:09:50.735Z,9.03
2022-09-13T01:12:32.034Z,9.37
2022-09-13T01:15:01.839Z,9.57
2022-09-13T01:17:33.084Z,9.80
2022-09-13T01:20:01.986Z,9.60
2022-09-13T01:22:57.970Z,10.10
2022-09-13T01:26:02.385Z,8.30
2022-09-13T01:29:05.352Z,8.90
2022-09-13T01:31:39.434Z,8.00
2022-09-13T01:34:25.105Z,8.53
2022-09-13T01:37:09.034Z,9.30
2022-09-13T01:39:57.493Z,9.63
2022-09-13T01:42:36.669Z,8.83
2022-09-13T01:45:15.049Z,9.33
2022-09-13T01:47:51.202Z,9.70
2022-09-13T01:50:25.080Z,8.47
2022-09-13T01:52:57.621Z,9.70
2022-09-13T01:55:33.994Z,10.00
2022-09-13T01:58:10.142Z,9.13
2022-09-13T02:00:42.823Z,8.90
2022-09-13T02:03:19.310Z,10.60
2022-09-13T02:05:52.810Z,10.03
2022-09-13T02:08:26.665Z,9.20
2022-09-13T02:10:59.997Z,9.90
2022-09-13T02:13:34.858Z,10.20
2022-09-13T02:16:09.438Z,10.00
2022-09-13T02:18:42.746Z,10.33
2022-09-13T02:21:14.093Z,10.93
2022-09-13T02:23:45.951Z,11.17
2022-09-13T02:26:16.465Z,9.10
2022-09-13T02:28:49.251Z,9.60
2022-09-13T02:31:20.417Z,9.50
2022-09-13T02:33:55.014Z,10.40
2022-09-13T02:36:25.662Z,10.90
2022-09-13T02:38:58.350Z,10.17
2022-09-13T02:41:32.835Z,10.33
2022-09-13T02:44:08.614Z,9.70
2022-09-13T02:46:48.272Z,10.00
2022-09-13T02:49:27.307Z,9.87
2022-09-13T02:51:58.727Z,10.00
2022-09-13T02:54:34.172Z,10.27
2022-09-13T02:57:08.386Z,10.10
2022-09-13T02:59:36.817Z,10.63
2022-09-13T03:02:07.963Z,9.70
2022-09-13T03:04:37.369Z,10.30
2022-09-13T03:07:07.631Z,9.67
2022-09-13T03:09:36.661Z,11.60
2022-09-13T03:12:30.015Z,10.57
2022-09-13T03:15:05.753Z,11.13
2022-09-13T03:17:46.463Z,10.57
2022-09-13T03:20:22.747Z,10.40
2022-09-13T03:23:11.412Z,10.20
2022-09-13T03:26:00.843Z,10.50
2022-09-13T03:28:38.619Z,9.90
2022-09-13T03:31:10.351Z,10.40
2022-09-13T03:33:45.521Z,10.30
2022-09-13T03:36:20.192Z,9.27
2022-09-13T03:38:56.833Z,10.83
2022-09-13T03:41:31.022Z,10.23
2022-09-13T03:44:02.444Z,10.03
2022-09-13T03:46:35.057Z,10.53
2022-09-13T03:49:05.922Z,10.30
2022-09-13T03:51:35.030Z,9.63
2022-09-13T03:54:06.008Z,9.77
2022-09-13T03:56:33.831Z,9.60
2022-09-13T03:59:01.531Z,9.10
2022-09-13T04:01:29.575Z,8.97
2022-09-13T04:03:57.306Z,11.17
2022-09-13T04:06:25.060Z,9.90
2022-09-13T04:08:53.990Z,10.87
2022-09-13T04:11:22.092Z,10.40
2022-09-13T04:13:49.957Z,10.67
2022-09-13T04:16:17.710Z,9.83
2022-09-13T04:18:45.311Z,10.20
2022-09-13T04:21:12.902Z,10.53
2022-09-13T04:23:40.526Z,10.60
2022-09-13T04:26:09.487Z,10.60
2022-09-13T04:28:37.170Z,9.73
2022-09-13T04:31:04.830Z,9.10
2022-09-13T04:33:32.531Z,9.80
2022-09-13T04:36:01.133Z,10.47
2022-09-13T04:38:31.347Z,9.70
2022-09-13T04:40:59.106Z,10.87
2022-09-13T04:43:28.113Z,10.73
2022-09-13T04:45:55.846Z,10.40
2022-09-13T04:48:23.454Z,10.77
2022-09-13T04:50:50.950Z,9.87
2022-09-13T04:53:18.605Z,9.57
2022-09-13T04:55:46.303Z,9.70
2022-09-13T04:58:13.803Z,9.50
2022-09-13T05:00:42.777Z,9.83
2022-09-13T05:03:10.358Z,10.00
2022-09-13T05:05:37.948Z,10.30
2022-09-13T05:08:05.557Z,9.77
2022-09-13T05:10:33.219Z,9.93
2022-09-13T05:13:01.329Z,9.93
2022-09-13T05:15:28.956Z,10.20
2022-09-13T05:17:57.915Z,10.20
2022-09-13T05:20:25.518Z,9.87
2022-09-13T05:22:53.149Z,10.20
2022-09-13T05:25:25.420Z,10.30
2022-09-13T05:27:53.556Z,10.10
2022-09-13T05:30:21.515Z,10.77
2022-09-13T05:32:49.122Z,9.13
2022-09-13T05:35:18.024Z,9.50
2022-09-13T05:37:45.652Z,10.70
2022-09-13T05:40:13.546Z,9.20
2022-09-13T05:42:41.246Z,10.63
2022-09-13T05:45:10.348Z,11.50
2022-09-13T05:47:37.987Z,10.07
2022-09-13T05:50:11.862Z,10.50
2022-09-13T05:52:42.479Z,9.77
2022-09-13T05:55:10.696Z,9.97
2022-09-13T05:57:38.505Z,8.80
2022-09-13T06:00:06.923Z,8.77
2022-09-13T06:02:34.693Z,8.60
2022-09-13T06:05:02.410Z,9.73
2022-09-13T06:07:30.207Z,9.50
2022-09-13T06:09:59.190Z,9.13
2022-09-13T06:12:27.088Z,8.67
2022-09-13T06:14:54.840Z,9.43
2022-09-13T06:17:22.431Z,9.20
2022-09-13T06:19:50.137Z,8.63
2022-09-13T06:22:17.807Z,8.80
2022-09-13T06:24:45.473Z,8.93
2022-09-13T06:27:14.417Z,7.57
2022-09-13T06:29:42.086Z,8.70
2022-09-13T06:32:10.895Z,9.13
2022-09-13T06:34:38.487Z,7.97
2022-09-13T06:37:06.698Z,7.57
2022-09-13T06:39:34.298Z,7.70
2022-09-13T06:42:02.142Z,7.23
2022-09-13T06:44:31.173Z,7.80
2022-09-13T06:46:58.852Z,9.73
2022-09-13T06:49:29.105Z,8.63
2022-09-13T06:51:56.743Z,7.90
2022-09-13T06:54:24.332Z,7.77
2022-09-13T06:56:52.036Z,9.07
2022-09-13T06:59:19.902Z,8.60
2022-09-13T07:01:49.145Z,8.57
2022-09-13T07:04:19.391Z,9.10
2022-09-13T07:06:48.828Z,8.87
2022-09-13T07:09:18.282Z,10.10
2022-09-13T07:11:47.146Z,9.10
2022-09-13T07:14:16.108Z,7.83
2022-09-13T07:16:43.995Z,9.20
2022-09-13T07:19:16.491Z,9.10
2022-09-13T07:21:45.021Z,9.83
2022-09-13T07:24:13.304Z,10.93
2022-09-13T07:26:40.915Z,9.80
2022-09-13T07:29:11.919Z,9.67
2022-09-13T07:31:41.060Z,9.93
2022-09-13T07:34:13.611Z,9.77
2022-09-13T07:36:43.520Z,10.30
2022-09-13T07:39:15.100Z,9.97
2022-09-13T07:41:46.421Z,10.90
2022-09-13T07:44:14.532Z,10.50
2022-09-13T07:46:43.638Z,10.60
2022-09-13T07:49:14.150Z,11.43
2022-09-13T07:51:47.241Z,10.23
2022-09-13T07:54:17.574Z,9.90
2022-09-13T07:56:45.699Z,10.20
2022-09-13T07:59:15.137Z,10.13
2022-09-13T08:01:44.516Z,10.90
2022-09-13T08:04:14.165Z,11.03
2022-09-13T08:06:43.524Z,11.27
2022-09-13T08:09:12.044Z,9.67
2022-09-13T08:11:41.422Z,9.90
2022-09-13T08:14:12.182Z,10.40
2022-09-13T08:16:40.514Z,9.87
2022-09-13T08:19:13.219Z,10.80
2022-09-13T08:21:43.539Z,9.77
2022-09-13T08:24:15.854Z,10.10
2022-09-13T08:26:43.672Z,10.10
2022-09-13T08:29:13.433Z,10.70
2022-09-13T08:31:41.022Z,9.43
2022-09-13T08:34:12.586Z,7.67
2022-09-13T08:36:41.113Z,7.43
2022-09-13T08:39:10.857Z,7.37
2022-09-13T08:42:04.092Z,8.20
2022-09-13T08:44:35.022Z,8.20
2022-09-13T08:47:16.439Z,6.80
2022-09-13T08:49:47.812Z,7.87
2022-09-13T08:52:26.437Z,7.00
2022-09-13T08:54:58.350Z,8.40
2022-09-13T08:57:33.076Z,8.83
2022-09-13T09:00:07.853Z,7.17
2022-09-13T09:02:57.642Z,9.00
2022-09-13T09:05:28.203Z,8.20
2022-09-13T09:08:00.724Z,6.97
2022-09-13T09:10:33.419Z,6.80
2022-09-13T09:13:07.442Z,8.20
2022-09-13T09:15:38.066Z,7.60
2022-09-13T09:18:11.876Z,7.13
2022-09-13T09:20:43.864Z,8.10
2022-09-13T09:23:21.131Z,8.40
2022-09-13T09:25:52.891Z,8.40
2022-09-13T09:28:20.939Z,9.40
2022-09-13T09:30:59.478Z,9.43
2022-09-13T09:33:51.171Z,10.40
2022-09-13T09:36:29.573Z,9.73
2022-09-13T09:38:58.006Z,10.47
2022-09-13T09:41:31.534Z,9.67
2022-09-13T09:44:15.708Z,8.73
2022-09-13T09:46:45.009Z,9.57
2022-09-13T09:49:32.025Z,10.57
2022-09-13T09:52:01.235Z,9.70
2022-09-13T09:57:14.784Z,11.30
2022-09-13T09:59:42.376Z,12.10
2022-09-13T10:02:17.704Z,10.17
2022-09-13T10:04:57.095Z,10.87
2022-09-13T10:07:30.260Z,11.00
2022-09-13T10:10:01.279Z,9.83
2022-09-13T10:12:33.955Z,11.27
2022-09-13T10:15:17.881Z,10.03
2022-09-13T10:18:02.778Z,10.30
2022-09-13T10:20:31.375Z,10.80
2022-09-13T10:23:26.478Z,9.97
2022-09-13T10:26:02.392Z,10.40
2022-09-13T10:28:34.812Z,9.30
2022-09-13T10:31:06.669Z,8.90
2022-09-13T10:33:38.072Z,10.17
2022-09-13T10:36:09.544Z,10.40
2022-09-13T10:38:42.986Z,9.83
2022-09-13T10:41:24.064Z,9.80
2022-09-13T10:43:58.131Z,8.80
2022-09-13T10:46:26.276Z,9.67
2022-09-13T10:48:56.063Z,9.33
2022-09-13T10:51:36.731Z,9.80
2022-09-13T10:54:21.057Z,10.23
2022-09-13T10:56:49.440Z,10.00
2022-09-13T10:59:29.528Z,10.10
2022-09-13T11:02:20.158Z,9.37
2022-09-13T11:05:06.258Z,10.30
2022-09-13T11:07:58.734Z,10.67
2022-09-13T11:10:33.628Z,9.93
2022-09-13T11:13:08.918Z,10.57
2022-09-13T11:15:48.951Z,10.50
2022-09-13T11:18:45.047Z,10.27
2022-09-13T11:21:25.555Z,10.70
2022-09-13T11:24:17.135Z,10.53
2022-09-13T11:26:57.046Z,11.10
2022-09-13T11:29:35.981Z,9.50
2022-09-13T11:32:18.708Z,9.67
2022-09-13T11:35:08.293Z,8.70
2022-09-13T11:37:46.307Z,11.40
2022-09-13T11:40:30.817Z,10.23
2022-09-13T11:43:11.125Z,9.70
2022-09-13T11:45:46.603Z,13.07
2022-09-13T11:48:35.721Z,10.60
2022-09-13T11:51:10.377Z,10.10
2022-09-13T11:53:55.407Z,9.30
2022-09-13T11:56:29.168Z,9.93
2022-09-13T11:59:03.998Z,8.03
2022-09-13T12:01:38.226Z,8.13
2022-09-13T12:04:14.726Z,9.40
2022-09-13T12:06:48.105Z,8.80
2022-09-13T12:09:20.652Z,8.80
2022-09-13T12:11:52.684Z,7.87
2022-09-13T12:14:24.442Z,7.23
2022-09-13T12:16:55.883Z,6.63
2022-09-13T12:19:28.262Z,7.90
2022-09-13T12:21:59.156Z,7.20
2022-09-13T12:24:35.868Z,8.17
2022-09-13T12:27:09.026Z,7.43
2022-09-13T12:29:41.713Z,6.90
2022-09-13T12:32:11.206Z,7.47
2022-09-13T12:34:46.635Z,7.53
2022-09-13T12:37:39.332Z,7.10
2022-09-13T12:40:31.465Z,8.00
2022-09-13T12:43:11.610Z,6.70
2022-09-13T12:45:58.342Z,6.90
2022-09-13T12:48:50.257Z,7.00
2022-09-13T12:51:32.157Z,6.77
2022-09-13T12:54:33.618Z,6.70
2022-09-13T12:57:17.291Z,6.60
2022-09-13T13:00:13.438Z,7.70
2022-09-13T13:02:45.118Z,6.87
2022-09-13T13:05:25.794Z,7.40
2022-09-13T13:07:57.610Z,6.73
2022-09-13T13:10:32.388Z,7.40
2022-09-13T13:13:15.292Z,6.40
2022-09-13T13:15:59.741Z,7.03
2022-09-13T13:18:30.729Z,6.27
2022-09-13T13:21:40.289Z,6.57
2022-09-13T13:24:45.332Z,6.37
2022-09-13T13:27:38.180Z,6.30
2022-09-13T13:30:41.714Z,7.10
2022-09-13T13:33:28.595Z,7.30
2022-09-13T13:35:56.568Z,6.90
2022-09-13T13:38:49.461Z,7.17
2022-09-13T13:41:53.427Z,8.20
2022-09-13T13:44:57.821Z,7.47
2022-09-13T13:48:08.151Z,8.37
2022-09-13T13:50:39.250Z,8.13
2022-09-13T13:53:23.809Z,7.77
2022-09-13T13:56:09.170Z,8.10
2022-09-13T13:58:48.014Z,8.73
2022-09-13T14:01:21.994Z,7.20
2022-09-13T14:03:59.976Z,7.30
2022-09-13T14:06:33.497Z,6.93
2022-09-13T14:09:07.374Z,7.30
2022-09-13T14:11:47.892Z,6.53
2022-09-13T14:14:29.789Z,5.67
2022-09-13T14:17:23.776Z,6.13
2022-09-13T14:19:54.008Z,7.00
2022-09-13T14:22:23.867Z,6.40
2022-09-13T14:24:53.592Z,6.20
2022-09-13T14:27:24.142Z,6.50
2022-09-13T14:29:55.029Z,5.47
2022-09-13T14:32:29.310Z,5.47
2022-09-13T14:35:02.719Z,5.77
2022-09-13T14:37:32.471Z,5.73
2022-09-13T14:40:03.156Z,6.50
2022-09-13T14:42:40.604Z,6.60
2022-09-13T14:45:14.172Z,7.30
2022-09-13T14:47:50.225Z,7.87
2022-09-13T14:50:21.807Z,7.47
2022-09-13T14:52:53.006Z,7.00
2022-09-13T14:55:25.704Z,7.80
2022-09-13T14:57:58.488Z,7.60
2022-09-13T15:00:27.585Z,8.20
2022-09-13T15:02:59.729Z,7.13
2022-09-13T15:05:30.970Z,6.13
2022-09-13T15:07:59.649Z,6.67
2022-09-13T15:10:30.088Z,8.57
2022-09-13T15:13:09.118Z,6.83
2022-09-13T15:15:39.034Z,6.50
2022-09-13T15:18:25.667Z,6.30
2022-09-13T15:20:55.418Z,7.37
2022-09-13T15:23:26.087Z,6.43
2022-09-13T15:25:56.245Z,5.90
2022-09-13T15:28:27.039Z,7.67
2022-09-13T15:30:56.337Z,7.70
2022-09-13T15:33:28.915Z,7.27
2022-09-13T15:36:17.517Z,6.63
2022-09-13T15:39:00.401Z,6.70
2022-09-13T15:41:32.294Z,7.27
2022-09-13T15:44:01.110Z,6.70
2022-09-13T15:46:29.567Z,6.73
2022-09-13T15:49:01.714Z,6.87
2022-09-13T15:51:36.826Z,6.90
2022-09-13T15:54:11.546Z,7.40
2022-09-13T15:56:40.905Z,7.10
2022-09-13T15:59:10.046Z,8.10
2022-09-13T16:01:37.685Z,7.87
2022-09-13T16:04:07.598Z,7.33
2022-09-13T16:06:35.195Z,7.17
2022-09-13T16:09:02.997Z,8.37
2022-09-13T16:11:30.549Z,7.17
2022-09-13T16:13:58.172Z,7.30
2022-09-13T16:16:25.879Z,7.27
2022-09-13T16:18:53.507Z,7.60
2022-09-13T16:21:22.575Z,7.00
2022-09-13T16:23:50.464Z,7.87
2022-09-13T16:26:18.266Z,7.90
2022-09-13T16:28:45.854Z,7.57
2022-09-13T16:31:14.858Z,8.40
2022-09-13T16:33:42.421Z,8.00
2022-09-13T16:36:12.609Z,8.67
2022-09-13T16:38:41.940Z,9.33
2022-09-13T16:41:09.592Z,8.83
2022-09-13T16:43:37.173Z,9.60
2022-09-13T16:46:08.032Z,8.20
2022-09-13T16:48:36.772Z,9.30
2022-09-13T16:51:04.960Z,8.33
2022-09-13T16:53:34.879Z,8.27
2022-09-13T16:56:08.278Z,9.20
2022-09-13T16:58:37.499Z,9.00
2022-09-13T17:01:05.796Z,7.30
2022-09-13T17:03:36.005Z,7.70
2022-09-13T17:06:05.458Z,8.77
2022-09-13T17:08:34.056Z,8.47
2022-09-13T17:11:05.379Z,8.57
2022-09-13T17:13:34.880Z,9.83
2022-09-13T17:16:03.030Z,9.70
2022-09-13T17:18:30.791Z,8.50
2022-09-13T17:21:00.768Z,9.00
2022-09-13T17:23:28.497Z,8.13
2022-09-13T17:25:56.168Z,8.33
2022-09-13T17:28:23.895Z,9.13
2022-09-13T17:30:52.873Z,10.20
2022-09-13T17:33:20.664Z,9.67
2022-09-13T17:35:48.254Z,9.20
2022-09-13T17:38:16.221Z,8.20
2022-09-13T17:40:43.830Z,8.90
2022-09-13T17:43:17.487Z,8.50
2022-09-13T17:45:49.187Z,10.60
2022-09-13T17:48:18.459Z,10.57
2022-09-13T17:50:46.151Z,10.07
2022-09-13T17:53:14.047Z,10.30
2022-09-13T17:55:48.006Z,10.00
2022-09-13T17:58:17.268Z,9.80
2022-09-13T18:00:45.122Z,9.10
2022-09-13T18:03:12.922Z,9.40
2022-09-13T18:05:42.015Z,9.47
2022-09-13T18:08:09.602Z,10.07
2022-09-13T18:10:58.333Z,9.67
2022-09-13T18:13:26.175Z,11.90
2022-09-13T18:16:00.927Z,12.03
2022-09-13T18:18:29.023Z,11.70
2022-09-13T18:20:58.717Z,12.87
2022-09-13T18:23:28.584Z,10.53
2022-09-13T18:26:02.965Z,10.57
2022-09-13T18:28:32.048Z,11.10
2022-09-13T18:31:01.852Z,11.60
2022-09-13T18:33:30.197Z,11.20
2022-09-13T18:36:01.283Z,12.40
2022-09-13T18:38:29.881Z,12.53
2022-09-13T18:41:02.494Z,11.97
2022-09-13T18:43:30.520Z,18.80
2022-09-13T18:45:59.471Z,19.07
2022-09-13T18:48:30.326Z,20.23
2022-09-13T18:50:58.211Z,16.43
2022-09-13T18:53:34.426Z,15.20
2022-09-13T18:56:03.763Z,16.00
2022-09-13T18:58:32.098Z,16.30
2022-09-13T19:01:07.709Z,16.83
2022-09-13T19:03:36.219Z,15.60
2022-09-13T19:06:14.893Z,14.90
2022-09-13T19:08:47.358Z,17.63
2022-09-13T19:11:35.620Z,21.90
2022-09-13T19:14:07.327Z,16.10
2022-09-13T19:16:36.135Z,15.57
2022-09-13T19:19:03.796Z,15.57
2022-09-13T19:21:33.771Z,16.20
2022-09-13T19:24:10.822Z,16.23
2022-09-13T19:26:40.888Z,15.17
2022-09-13T19:29:11.760Z,14.60
2022-09-13T19:31:41.450Z,14.70
2022-09-13T19:34:10.198Z,13.63
2022-09-13T19:36:40.003Z,12.67
2022-09-13T19:39:09.034Z,15.37
2022-09-13T19:41:38.192Z,16.40
2022-09-13T19:44:07.035Z,14.40
2022-09-13T19:46:37.349Z,14.23
2022-09-13T19:49:08.250Z,14.77
2022-09-13T19:51:38.199Z,16.80
2022-09-13T19:54:07.543Z,14.30
2022-09-13T19:56:39.297Z,22.70
2022-09-13T19:59:08.536Z,22.17
2022-09-13T20:01:38.223Z,16.00
2022-09-13T20:04:08.421Z,19.27
2022-09-13T20:06:37.804Z,15.90
2022-09-13T20:09:05.866Z,14.87
2022-09-13T20:11:37.608Z,15.67
2022-09-13T20:14:09.008Z,18.90
2022-09-13T20:16:41.094Z,16.30
2022-09-13T20:19:29.649Z,15.10
2022-09-13T20:21:56.713Z,15.80
2022-09-13T20:24:24.272Z,14.90
2022-09-13T20:26:52.177Z,17.63
2022-09-13T20:29:24.689Z,15.47
2022-09-13T20:31:52.300Z,15.17
2022-09-13T20:34:20.164Z,14.17
2022-09-13T20:36:48.063Z,16.67
2022-09-13T20:39:16.231Z,16.73
2022-09-13T20:41:45.079Z,17.20
2022-09-13T20:44:12.709Z,17.27
2022-09-13T20:46:43.563Z,15.43
2022-09-13T20:49:13.780Z,17.07
2022-09-13T20:51:41.438Z,18.10
2022-09-13T20:54:09.397Z,17.47
2022-09-13T20:56:37.058Z,16.13
2022-09-13T20:59:05.572Z,15.63
2022-09-13T21:01:34.103Z,18.50
2022-09-13T21:04:03.828Z,20.40
2022-09-13T21:07:00.407Z,17.90
2022-09-13T21:09:27.347Z,21.37
2022-09-13T21:11:54.950Z,22.80
2022-09-13T21:14:22.712Z,31.07
2022-09-13T21:16:51.529Z,30.63
2022-09-13T21:19:20.518Z,28.40
2022-09-13T21:21:48.537Z,25.07
2022-09-13T21:24:16.196Z,27.70
2022-09-13T21:26:43.715Z,26.67
2022-09-13T21:29:12.525Z,21.87
2022-09-13T21:31:43.062Z,19.93
2022-09-13T21:34:15.043Z,21.70
2022-09-13T21:36:44.920Z,22.17
2022-09-13T21:39:12.803Z,22.00
2022-09-13T21:41:41.724Z,21.53
2022-09-13T21:44:09.701Z,22.93
2022-09-13T21:46:39.172Z,20.40
2022-09-13T21:49:09.068Z,19.53
2022-09-13T21:51:38.609Z,19.83
2022-09-13T21:54:11.500Z,20.90
2022-09-13T21:56:40.899Z,21.93
2022-09-13T21:59:12.587Z,22.57
2022-09-13T22:01:41.922Z,22.80
2022-09-13T22:04:12.340Z,24.00
2022-09-13T22:06:40.039Z,22.53
2022-09-13T22:09:10.631Z,22.80
2022-09-13T22:11:41.140Z,20.27
2022-09-13T22:14:11.991Z,18.97
2022-09-13T22:16:41.555Z,19.90
2022-09-13T22:19:12.946Z,21.33
2022-09-13T22:21:42.663Z,19.87
2022-09-13T22:24:18.201Z,19.90
2022-09-13T22:26:47.678Z,20.47
2022-09-13T22:29:16.059Z,20.87
2022-09-13T22:31:46.425Z,20.80
2022-09-13T22:34:16.607Z,20.77
2022-09-13T22:36:44.950Z,19.60
2022-09-13T22:39:16.750Z,20.87
2022-09-13T22:41:45.154Z,19.70
2022-09-13T22:44:13.421Z,21.13
2022-09-13T22:46:42.427Z,21.10
2022-09-13T22:49:13.403Z,21.80
2022-09-13T22:51:40.956Z,18.27
2022-09-13T22:54:11.289Z,19.53
2022-09-13T22:56:40.438Z,20.80
2022-09-13T22:59:10.052Z,18.50
2022-09-13T23:01:38.491Z,20.23
2022-09-13T23:04:07.109Z,18.90
2022-09-13T23:06:38.418Z,19.40
2022-09-13T23:09:16.668Z,20.37
2022-09-13T23:11:46.470Z,17.20
2022-09-13T23:14:17.075Z,18.37
2022-09-13T23:16:46.692Z,18.17
2022-09-13T23:19:18.063Z,18.50
2022-09-13T23:21:46.282Z,19.30
2022-09-13T23:24:15.621Z,18.33
2022-09-13T23:26:45.585Z,17.10
2022-09-13T23:29:15.121Z,18.23
2022-09-13T23:31:43.607Z,17.33
2022-09-13T23:34:14.830Z,17.10
2022-09-13T23:36:44.391Z,17.73
2022-09-13T23:39:16.359Z,16.57
2022-09-13T23:41:47.414Z,16.83
2022-09-13T23:44:17.097Z,18.37
2022-09-13T23:46:47.835Z,18.03
2022-09-13T23:49:15.743Z,18.10
2022-09-13T23:51:43.647Z,16.87
2022-09-13T23:54:13.209Z,17.97
2022-09-13T23:56:40.968Z,16.07
2022-09-13T23:59:12.857Z,14.93
